Otay Mountain (75, 260, 536) Station Data

Red Flag Warning: No
Fire Weather Zone: 250
SDGE Region: Eastern
Lat/Lon: 32.599/-116.843

Observations

Time Wind Speed/Gust Temp(F) RH Fuel Moist Fuel Temp(F) Dewpt(F) Tmax(F) Tmin(F) Accum Precip 10-min Precip SL Press(mb)
2/27 11:40pm 241 6 G 20 44° 100% - - 44° 46.6° 43.7° - - -
2/27 11:20pm 233 6 G 17 44° 100% - - 44° 46.6° 43.7° - - -
2/27 11:10pm 248 10 G 27 44° 100% - - 44° 46.6° 43.7° - - -
2/27 11:00pm 236 8 G 25 45° 100% - - 45° 46.6° 44° - - -
2/27 10:50pm 219 18 G 37 45° 100% - - 45° 46.6° 44° - - -
2/27 10:40pm 213 19 G 32 45° 100% - - 45° 46.6° 44° - - -
2/27 10:30pm 202 18 G 36 45° 100% - - 45° 46.6° 44° - - -
2/27 10:20pm 197 17 G 30 45° 100% - - 45° 46.6° 44° - - -
2/27 10:10pm 198 15 G 30 45° 100% - - 45° 46.6° 44° - - -
2/27 10:00pm 185 8 G 21 45° 100% - - 45° 46.6° 44° - - -
2/27 9:50pm 183 11 G 22 45° 100% - - 45° 46.6° 44° - - -
2/27 9:40pm 160 10 G 23 45° 100% - - 45° 46.6° 44° - - -
2/27 9:30pm 168 9 G 15 45° 100% - - 45° 46.6° 44° - - -
2/27 9:20pm 170 10 G 26 45° 100% - - 45° 46.6° 44° - - -
2/27 9:10pm 172 12 G 23 45° 100% - - 45° 46.6° 44° - - -
2/27 9:00pm 176 11 G 25 45° 100% - - 45° 46.6° 44° - - -
2/27 8:50pm 183 12 G 24 45° 100% - - 45° 46.6° 44° - - -
2/27 8:40pm 201 14 G 26 45° 100% - - 45° 46.6° 44° - - -
2/27 8:30pm 203 15 G 28 45° 100% - - 45° 46.6° 44° - - -
2/27 8:20pm 200 17 G 35 45° 100% - - 45° 46.6° 44° - - -
2/27 8:00pm 182 9 G 20 45° 100% - - 45° 46.6° 44° - - -
2/27 7:50pm 168 13 G 24 45° 100% - - 45° 46.6° 44° - - -
2/27 7:40pm 169 12 G 22 45° 100% - - 45° 46.6° 44° - - -
2/27 7:30pm 169 10 G 23 45° 100% - - 45° 46.6° 44° - - -
2/27 7:20pm 165 11 G 20 45° 100% - - 45° 46.6° 44° - - -
2/27 7:10pm 158 11 G 19 45° 100% - - 45° 46.6° 44° - - -
2/27 7:00pm 161 11 G 23 45° 100% - - 45° 46.6° 44° - - -
2/27 6:50pm 156 11 G 21 45° 100% - - 45° 46.6° 44° - - -
2/27 6:40pm 162 9 G 17 45° 100% - - 45° 46.6° 44° - - -
2/27 6:30pm 166 9 G 20 45° 100% - - 45° 46.6° 44° - - -
2/27 6:20pm 164 9 G 22 45° 100% - - 45° 46.6° 44° - - -
2/27 6:10pm 158 10 G 20 45° 100% - - 45° 46.6° 44° - - -
2/27 6:00pm 154 12 G 18 45° 100% - - 45° 46.6° 44° - - -
2/27 5:50pm 164 12 G 21 45° 100% - - 45° 46.6° 44° - - -
2/27 5:40pm 163 10 G 19 45° 100% - - 45° 46.6° 44° - - -
2/27 5:30pm 160 10 G 17 45° 100% - - 45° 46.6° 44° - - -
2/27 5:20pm 161 11 G 23 45° 100% - - 45° 46.6° 44° - - -
2/27 5:10pm 166 10 G 17 45° 100% - - 45° 46.6° 44° - - -
2/27 5:00pm 166 10 G 18 45° 100% - - 45° 46.6° 44° - - -
2/27 4:50pm 164 11 G 19 45° 100% - - 45° 46.6° 44° - - -
2/27 4:40pm 170 11 G 19 45° 100% - - 45° 46.6° 44° - - -
2/27 4:30pm 179 11 G 21 45° 100% - - 45° 46.6° 44° - - -
2/27 4:20pm 194 11 G 24 45° 100% - - 45° 46.6° 44° - - -
2/27 4:10pm 190 13 G 27 45° 100% - - 45° 46.6° 44° - - -
2/27 4:00pm 188 9 G 20 46° 100% - - 46° 46.6° 44° - - -
2/27 3:50pm 175 11 G 22 46° 100% - - 46° 46.6° 44° - - -
2/27 3:40pm 185 13 G 27 46° 100% - - 46° 46.6° 44° - - -
2/27 3:30pm 197 14 G 25 46° 100% - - 46° 46.6° 44° - - -
2/27 3:20pm 192 12 G 26 46° 100% - - 46° 46.6° 44° - - -
2/27 3:10pm 193 13 G 24 46° 100% - - 46° 46.6° 44° - - -
2/27 3:00pm 200 14 G 28 46° 100% - - 46° 46.6° 44° - - -
2/27 2:50pm 203 15 G 28 46° 100% - - 46° 46.6° 44° - - -
2/27 2:40pm 205 16 G 30 46° 100% - - 46° 46.6° 44° - - -
2/27 2:30pm 203 16 G 29 46° 100% - - 46° 46.6° 44° - - -
2/27 2:20pm 203 16 G 30 46° 100% - - 46° 46.6° 44° - - -
2/27 2:10pm 201 16 G 27 46° 100% - - 46° 46.6° 44° - - -
2/27 2:00pm 192 13 G 27 46° 100% - - 46° 46.6° 44° - - -
2/27 1:50pm 184 14 G 28 45° 100% - - 45° 46.6° 44° - - -
2/27 1:40pm 186 14 G 28 45° 100% - - 45° 46.6° 44° - - -
2/27 1:30pm 183 14 G 27 45° 100% - - 45° 46.6° 44° - - -
2/27 1:20pm 177 14 G 25 46° 100% - - 46° 46.6° 44° - - -
2/27 1:10pm 176 13 G 30 46° 100% - - 46° 46.6° 44° - - -
2/27 1:00pm 181 14 G 28 46° 100% - - 46° 46.6° 44° - - -
2/27 12:50pm 187 16 G 29 46° 100% - - 46° 46.6° 44° - - -
2/27 12:40pm 192 19 G 34 46° 100% - - 46° 46.6° 44° - - -
2/27 12:30pm 201 21 G 39 46° 100% - - 46° 46.6° 44° - - -
2/27 12:20pm 203 21 G 35 46° 100% - - 46° 46.6° 44° - - -
2/27 12:10pm 197 18 G 38 46° 100% - - 46° 46.6° 44° - - -
2/27 12:00pm 194 17 G 36 46° 100% - - 46° 46.6° 44° - - -
2/27 11:50am 198 17 G 33 46° 100% - - 46° 46.6° 44° - - -
2/27 11:40am 193 18 G 32 46° 100% - - 46° 46.6° 44° - - -
2/27 11:30am 185 14 G 28 46° 100% - - 46° 46.6° 44° - - -
2/27 11:20am 180 14 G 25 46° 100% - - 46° 46.6° 44° - - -
2/27 11:10am 186 13 G 24 45° 100% - - 45° 46.6° 44° - - -
2/27 11:00am 184 15 G 31 45° 100% - - 45° 46.6° 44° - - -
2/27 10:50am 184 16 G 26 45° 100% - - 45° 46.6° 44° - - -
2/27 10:40am 179 17 G 34 46° 100% - - 46° 46.6° 44° - - -
2/27 10:30am 180 14 G 29 45° 100% - - 45° 46.6° 44° - - -
2/27 10:20am 170 16 G 32 46° 100% - - 46° 46.6° 44° - - -
2/27 10:10am 174 17 G 34 46° 100% - - 46° 46.6° 44° - - -
2/27 10:00am 172 13 G 31 46° 100% - - 46° 46.6° 44° - - -
2/27 9:50am 188 14 G 31 46° 100% - - 46° 46.6° 44° - - -
2/27 9:40am 186 15 G 33 46° 100% - - 46° 46.6° 44° - - -
2/27 9:30am 191 11 G 23 46° 100% - - 46° 46.6° 44° - - -
2/27 9:20am 172 12 G 22 46° 100% - - 46° 46.6° 44° - - -
2/27 9:10am 159 11 G 21 46° 100% - - 46° 46.6° 44° - - -
2/27 9:00am 165 11 G 20 46° 100% - - 46° 46.6° 44° - - -
2/27 8:50am 159 13 G 29 46° 100% - - 46° 46.6° 44° - - -
2/27 8:40am 176 14 G 24 46° 100% - - 46° 46.6° 44° - - -
2/27 8:30am 180 15 G 29 46° 100% - - 46° 46.6° 44° - - -
2/27 8:20am 165 15 G 28 46° 100% - - 46° 46.6° 44° - - -
2/27 8:10am 187 12 G 23 46° 100% - - 46° 46.6° 44° - - -
2/27 8:00am 188 11 G 25 46° 100% - - 46° 46.6° 44° - - -
2/27 7:50am 185 14 G 30 46° 100% - - 46° 46.6° 44° - - -
2/27 7:40am 187 13 G 25 46° 100% - - 46° 46.6° 44° - - -
2/27 7:30am 187 11 G 22 46° 100% - - 46° 46.6° 44° - - -
2/27 7:20am 177 12 G 21 46° 100% - - 46° 46.6° 44° - - -
2/27 7:10am 188 13 G 26 46° 100% - - 46° 46.6° 44° - - -
2/27 7:00am 182 12 G 25 46° 100% - - 46° 46.6° 44° - - -
2/27 6:50am 187 11 G 26 46° 100% - - 46° 46.6° 44° - - -
2/27 6:40am 189 13 G 24 46° 100% - - 46° 46.6° 44° - - -
2/27 6:30am 195 13 G 27 46° 100% - - 46° 46.6° 44° - - -
2/27 6:20am 196 15 G 27 46° 100% - - 46° 46.6° 44° - - -
2/27 6:10am 196 14 G 30 46° 100% - - 46° 46.6° 44° - - -
2/27 6:00am 190 15 G 24 46° 100% - - 46° 46.6° 44° - - -
2/27 5:50am 184 12 G 24 46° 100% - - 46° 46.6° 44° - - -
2/27 5:40am 181 9 G 22 46° 100% - - 46° 46.6° 44° - - -
2/27 5:30am 178 11 G 22 46° 100% - - 46° 46.6° 44° - - -
2/27 5:20am 173 13 G 24 46° 100% - - 46° 46.6° 44° - - -
2/27 5:10am 183 13 G 28 46° 100% - - 46° 46.6° 44° - - -
2/27 5:00am 182 13 G 22 46° 100% - - 46° 46.5° 44° - - -
2/27 4:50am 181 12 G 22 46° 100% - - 46° 46.5° 44° - - -
2/27 4:40am 182 11 G 20 46° 100% - - 46° 46.4° 44° - - -
2/27 4:30am 175 13 G 26 46° 100% - - 46° 46.4° 44° - - -
2/27 4:20am 174 11 G 17 46° 100% - - 46° 46.2° 44° - - -
2/27 4:10am 171 11 G 21 46° 100% - - 46° 46.2° 44° - - -
2/27 4:00am 181 12 G 25 46° 100% - - 46° 46° 44° - - -
2/27 3:50am 180 10 G 19 46° 100% - - 46° 45.9° 44° - - -
2/27 3:40am 171 10 G 20 46° 100% - - 46° 45.9° 44° - - -
2/27 3:30am 172 10 G 18 46° 100% - - 46° 45.8° 44° - - -
2/27 3:20am 172 10 G 17 45° 100% - - 45° 45.7° 44° - - -
2/27 3:10am 166 9 G 17 45° 100% - - 45° 45.5° 44° - - -
2/27 3:00am 166 9 G 19 45° 100% - - 45° 45.5° 44° - - -
2/27 2:50am 159 9 G 17 45° 100% - - 45° 45.5° 44° - - -
2/27 2:40am 167 9 G 15 45° 100% - - 45° 45.5° 44° - - -
2/27 2:30am 171 8 G 15 45° 100% - - 45° 45.5° 44° - - -
2/27 2:20am 167 8 G 13 45° 100% - - 45° 45.3° 44° - - -
2/27 2:10am 169 7 G 15 45° 100% - - 45° 45.1° 44° - - -
2/27 2:00am 165 7 G 14 45° 100% - - 45° 45° 44° - - -
2/27 1:50am 172 8 G 15 45° 100% - - 45° 45° 44° - - -
2/27 1:40am 169 9 G 18 45° 100% - - 45° 44.9° 44° - - -
2/27 1:30am 173 9 G 15 45° 100% - - 45° 44.9° 44° - - -
2/27 1:20am 171 10 G 15 45° 100% - - 45° 44.9° 44° - - -
2/27 1:10am 176 11 G 18 44° 100% - - 45° 44.7° 44° - - -
2/27 1:00am 176 12 G 20 44° 100% - - 44° 44.7° 44° - - -
2/27 12:50am 184 9 G 15 44° 100% - - 44° 44.6° 44° - - -
2/27 12:40am 185 10 G 17 44° 100% - - 44° 44.6° 44° - - -
2/27 12:30am 186 8 G 14 44° 100% - - 44° 44.6° 44° - - -
2/27 12:20am 191 10 G 17 44° 100% - - 44° 44.6° 44° - - -
2/27 12:10am 191 10 G 19 44° 100% - - 44° 44.3° 44° - - -
2/27 12:00am 178 11 G 19 44° 100% - - 44° 44.3° 37.4° - - -
2/26 11:50pm 188 10 G 22 44° 100% - - 44° 44.2° 37.4° - - -
2/26 11:40pm 179 10 G 18 44° 100% - - 44° 44° 37.4° - - -
2/26 11:30pm 186 8 G 16 44° 100% - - 44° 43.9° 37.4° - - -
2/26 11:20pm 198 9 G 16 43° 100% - - 44° 43.9° 37.4° - - -
2/26 11:10pm 205 10 G 19 43° 100% - - 43° 43.6° 37.4° - - -
2/26 11:00pm 200 9 G 17 43° 100% - - 43° 43.6° 37.4° - - -
2/26 10:50pm 207 9 G 16 43° 100% - - 43° 43.6° 37.4° - - -
2/26 10:40pm 204 11 G 19 43° 100% - - 43° 43.6° 37.4° - - -
2/26 10:30pm 206 11 G 18 43° 100% - - 43° 43.5° 37.4° - - -
2/26 10:20pm 204 10 G 15 43° 100% - - 43° 43.3° 37.4° - - -
2/26 10:10pm 216 7 G 14 42° 100% - - 42° 43.3° 37.4° - - -
2/26 10:00pm 223 7 G 11 42° 100% - - 42° 43.3° 37.4° - - -
2/26 9:50pm 216 6 G 11 42° 100% - - 42° 43.3° 37.4° - - -
2/26 9:40pm 220 5 G 11 42° 100% - - 42° 43.3° 37.4° - - -
2/26 9:30pm 224 5 G 13 42° 100% - - 42° 43.3° 37.4° - - -
2/26 9:20pm 232 7 G 14 41° 100% - - 41° 43.3° 37.4° - - -
2/26 9:10pm 223 5 G 15 41° 100% - - 41° 43.3° 37.4° - - -
2/26 9:00pm 221 8 G 17 41° 100% - - 41° 43.3° 37.4° - - -
2/26 8:50pm 222 6 G 13 41° 100% - - 41° 43.3° 37.4° - - -
2/26 8:40pm 222 7 G 14 41° 100% - - 41° 43.3° 37.4° - - -
2/26 8:30pm 222 6 G 12 41° 100% - - 41° 43.3° 37.4° - - -
2/26 8:20pm 216 3 G 14 41° 100% - - 41° 43.3° 37.4° - - -
2/26 8:10pm 229 6 G 12 41° 100% - - 41° 43.3° 37.4° - - -
2/26 8:00pm 220 4 G 11 41° 100% - - 41° 43.3° 37.4° - - -
2/26 7:50pm 216 5 G 14 41° 100% - - 41° 43.3° 37.4° - - -
2/26 7:40pm 219 7 G 15 41° 100% - - 41° 43.3° 37.4° - - -
2/26 7:30pm 215 10 G 19 41° 100% - - 41° 43.3° 37.4° - - -
2/26 7:20pm 208 11 G 21 41° 100% - - 41° 43.3° 37.4° - - -
2/26 7:10pm 205 12 G 22 41° 100% - - 41° 43.3° 37.4° - - -
2/26 7:00pm 213 10 G 19 41° 100% - - 41° 43.3° 37.4° - - -
2/26 6:50pm 210 10 G 18 41° 100% - - 41° 43.3° 37.4° - - -
2/26 6:40pm 214 10 G 19 41° 100% - - 41° 43.3° 37.4° - - -
2/26 6:30pm 210 8 G 18 42° 100% - - 42° 43.3° 37.4° - - -
2/26 6:20pm 231 4 G 13 42° 100% - - 42° 43.3° 37.4° - - -
2/26 6:10pm 225 4 G 14 42° 100% - - 42° 43.3° 37.4° - - -
2/26 6:00pm 233 3 G 14 41° 100% - - 41° 43.3° 37.4° - - -
2/26 5:50pm 218 8 G 19 41° 100% - - 41° 43.3° 37.4° - - -
2/26 5:40pm 217 8 G 20 41° 100% - - 41° 43.3° 37.4° - - -
2/26 5:30pm 221 7 G 15 41° 100% - - 41° 43.3° 37.4° - - -
2/26 5:20pm 217 7 G 18 41° 100% - - 41° 43.3° 37.4° - - -
2/26 5:10pm 223 5 G 14 41° 100% - - 41° 43.3° 37.4° - - -
2/26 5:00pm 212 7 G 15 42° 100% - - 42° 43.3° 37.4° - - -